createdAt,value
2019-02-08T00:00:03.854Z,33.19
2019-02-08T00:01:03.147Z,34.39
2019-02-08T00:02:03.122Z,36.54
2019-02-08T00:03:03.609Z,34.37
2019-02-08T00:04:03.057Z,36.59
2019-02-08T00:05:03.694Z,35.72
2019-02-08T00:06:02.788Z,37.32
2019-02-08T00:07:03.875Z,37.32
2019-02-08T00:08:03.105Z,36.16
2019-02-08T00:09:03.512Z,39.34
2019-02-08T00:10:03.518Z,33.98
2019-02-08T00:11:03.143Z,37.11
2019-02-08T00:12:02.681Z,36.28
2019-02-08T00:13:03.179Z,37.26
2019-02-08T00:14:03.356Z,36.65
2019-02-08T00:15:04.049Z,34.99
2019-02-08T00:16:03.398Z,36.53
2019-02-08T00:17:03.229Z,37.37
2019-02-08T00:18:02.928Z,35.33
2019-02-08T00:19:02.863Z,34.82
2019-02-08T00:20:03.414Z,35.97
2019-02-08T00:21:02.353Z,34.68
2019-02-08T00:22:03.610Z,35.61
2019-02-08T00:23:02.590Z,35.28
2019-02-08T00:24:03.230Z,36.94
2019-02-08T00:25:03.610Z,34.96
2019-02-08T00:26:02.970Z,34.22
2019-02-08T00:27:03.467Z,34.09
2019-02-08T00:28:03.031Z,35.51
2019-02-08T00:29:03.105Z,33.58
2019-02-08T00:30:03.296Z,33.67
2019-02-08T00:31:03.386Z,33.28
2019-02-08T00:32:03.424Z,33.83
2019-02-08T00:33:02.935Z,33.48
2019-02-08T00:34:03.703Z,32.77
2019-02-08T00:35:03.287Z,33.37
2019-02-08T00:36:03.662Z,33.49
2019-02-08T00:37:03.234Z,31.71
2019-02-08T00:38:03.434Z,30.6
2019-02-08T00:39:03.317Z,32.04
2019-02-08T00:40:02.944Z,30.76
2019-02-08T00:41:03.270Z,30.02
2019-02-08T00:42:02.963Z,30.82
2019-02-08T00:43:03.305Z,29.79
2019-02-08T00:44:02.875Z,28.74
2019-02-08T00:45:03.882Z,29.6
2019-02-08T00:46:03.532Z,29.55
2019-02-08T00:47:03.482Z,33.08
2019-02-08T00:48:02.984Z,30.96
2019-02-08T00:49:03.262Z,28.64
2019-02-08T00:50:03.634Z,30.2
2019-02-08T00:51:03.008Z,32.33
2019-02-08T00:52:03.706Z,28.71
2019-02-08T00:53:48.113Z,28.71
2019-02-08T00:54:03.726Z,28.71
2019-02-08T00:55:03.727Z,27.68
2019-02-08T00:56:03.248Z,27.63
2019-02-08T00:57:03.770Z,30.74
2019-02-08T00:58:03.188Z,30.74
2019-02-08T00:59:03.515Z,28.19
2019-02-08T01:00:02.984Z,27.09
2019-02-08T01:01:03.707Z,27.09
2019-02-08T01:02:02.945Z,26.46
2019-02-08T01:03:03.111Z,31.76
2019-02-08T01:04:03.471Z,26.34
2019-02-08T01:05:01.719Z,27.74
2019-02-08T01:06:03.671Z,27.15
2019-02-08T01:07:03.398Z,26.69
2019-02-08T01:08:03.751Z,26.26
2019-02-08T01:09:03.091Z,28.11
2019-02-08T01:10:03.621Z,25.82
2019-02-08T01:11:02.817Z,29.91
2019-02-08T01:12:03.444Z,28.54
2019-02-08T01:13:02.944Z,25.82
2019-02-08T01:14:03.563Z,25.21
2019-02-08T01:15:03.011Z,26.33
2019-02-08T01:16:03.063Z,25.35
2019-02-08T01:17:03.655Z,26.38
2019-02-08T01:18:03.350Z,26.11
2019-02-08T01:19:02.784Z,23.35
2019-02-08T01:20:03.234Z,23.56
2019-02-08T01:21:03.654Z,24.97
2019-02-08T01:22:03.562Z,24.36
2019-02-08T01:23:03.326Z,25.02
2019-02-08T01:24:03.015Z,23.83
2019-02-08T01:25:03.445Z,24.31
2019-02-08T01:26:02.898Z,24.52
2019-02-08T01:27:02.866Z,23.13
2019-02-08T01:28:03.009Z,26.02
2019-02-08T01:29:02.791Z,24.48
2019-02-08T01:30:02.902Z,27.62
2019-02-08T01:31:03.316Z,25.56
2019-02-08T01:32:03.293Z,25.12
2019-02-08T01:33:03.297Z,26.58
2019-02-08T01:34:02.678Z,25.47
2019-02-08T01:35:03.174Z,27.98
2019-02-08T01:36:02.839Z,28.19
2019-02-08T01:37:03.334Z,24.44
2019-02-08T01:38:03.526Z,24.94
2019-02-08T01:39:03.548Z,24.04
2019-02-08T01:40:03.064Z,24.25
2019-02-08T01:41:03.169Z,22.74
2019-02-08T01:42:02.765Z,26.38
2019-02-08T01:43:03.210Z,25.75
2019-02-08T01:44:03.506Z,25.01
2019-02-08T01:45:02.993Z,25.8
2019-02-08T01:46:03.508Z,27.39
2019-02-08T01:47:02.762Z,27.39
2019-02-08T01:48:03.515Z,24.35
2019-02-08T01:49:03.614Z,23.52
2019-02-08T01:50:02.981Z,23.52
2019-02-08T01:51:03.678Z,24.59
2019-02-08T01:52:03.342Z,24.41
2019-02-08T01:53:02.681Z,24.41
2019-02-08T01:54:03.385Z,24.89
2019-02-08T01:55:03.531Z,27.37
2019-02-08T01:56:03.651Z,24.39
2019-02-08T01:57:03.329Z,22.9
2019-02-08T01:58:03.147Z,23.64
2019-02-08T01:59:03.327Z,23.6
2019-02-08T02:00:02.919Z,24.05
2019-02-08T02:01:02.979Z,23.94
2019-02-08T02:02:02.898Z,24.1
2019-02-08T02:03:03.432Z,23.29
2019-02-08T02:04:02.794Z,22.86
2019-02-08T02:05:03.396Z,23.12
2019-02-08T02:06:03.784Z,24.02
2019-02-08T02:07:03.108Z,24.42
2019-02-08T02:08:03.597Z,24.65
2019-02-08T02:09:02.959Z,23.98
2019-02-08T02:10:03.461Z,21.24
2019-02-08T02:11:03.057Z,24.34
2019-02-08T02:12:03.238Z,24.25
2019-02-08T02:13:03.653Z,24.04
2019-02-08T02:14:03.239Z,24.52
2019-02-08T02:15:03.237Z,23.29
2019-02-08T02:16:04.300Z,25.26
2019-02-08T02:17:02.671Z,23.39
2019-02-08T02:18:03.252Z,24.54
2019-02-08T02:19:03.622Z,21.68
2019-02-08T02:20:03.300Z,23.06
2019-02-08T02:21:03.463Z,24.87
2019-02-08T02:22:03.646Z,21.34
2019-02-08T02:23:03.466Z,21.54
2019-02-08T02:24:03.558Z,22.19
2019-02-08T02:25:03.227Z,22.15
2019-02-08T02:26:02.934Z,23.95
2019-02-08T02:27:03.451Z,23.82
2019-02-08T02:28:02.964Z,22.19
2019-02-08T02:29:03.320Z,22.69
2019-02-08T02:30:03.554Z,23.34
2019-02-08T02:31:03.077Z,24.25
2019-02-08T02:32:03.405Z,21.34
2019-02-08T02:33:03.449Z,23.25
2019-02-08T02:34:03.257Z,23.25
2019-02-08T02:35:03.445Z,23.25
2019-02-08T02:36:02.976Z,22.09
2019-02-08T02:37:03.555Z,23.05
2019-02-08T02:38:03.057Z,23.05
2019-02-08T02:39:03.665Z,23.64
2019-02-08T02:40:03.144Z,21.91
2019-02-08T02:41:03.144Z,22.75
2019-02-08T02:42:03.277Z,22.29
2019-02-08T02:43:03.619Z,21.79
2019-02-08T02:44:03.296Z,21.8
2019-02-08T02:45:03.376Z,25.56
2019-02-08T02:46:02.779Z,23.97
2019-02-08T02:47:03.592Z,22.36
2019-02-08T02:48:03.283Z,22.6
2019-02-08T02:49:03.338Z,23.28
2019-02-08T02:50:02.980Z,22.05
2019-02-08T02:51:03.238Z,23.29
2019-02-08T02:52:02.743Z,24.47
2019-02-08T02:53:03.429Z,22.96
2019-02-08T02:54:05.195Z,22.69
2019-02-08T02:55:03.431Z,24.42
2019-02-08T02:56:03.167Z,22.84
2019-02-08T02:57:03.637Z,23.65
2019-02-08T02:58:03.015Z,23.79
2019-02-08T02:59:03.739Z,21.52
2019-02-08T03:00:03.294Z,22.41
2019-02-08T03:01:03.665Z,22.91
2019-02-08T03:02:03.486Z,21.78
2019-02-08T03:03:02.953Z,24.59
2019-02-08T03:04:03.035Z,23.3
2019-02-08T03:05:02.696Z,21.68
2019-02-08T03:06:03.215Z,23.45
2019-02-08T03:07:03.580Z,22.63
2019-02-08T03:08:02.640Z,23.59
2019-02-08T03:09:03.097Z,21.91
2019-02-08T03:10:03.375Z,23.58
2019-02-08T03:11:02.740Z,25.11
2019-02-08T03:12:02.674Z,23.89
2019-02-08T03:13:03.075Z,22.08
2019-02-08T03:14:03.469Z,21.92
2019-02-08T03:15:03.336Z,25.74
2019-02-08T03:16:02.760Z,23.55
2019-02-08T03:17:03.093Z,23.92
2019-02-08T03:18:03.474Z,21.32
2019-02-08T03:19:02.928Z,23.54
2019-02-08T03:20:03.238Z,23.78
2019-02-08T03:21:02.966Z,24.12
2019-02-08T03:22:03.549Z,24.04
2019-02-08T03:23:02.738Z,24.04
2019-02-08T03:24:03.605Z,23.47
2019-02-08T03:25:03.313Z,21.95
2019-02-08T03:26:03.813Z,21.95
2019-02-08T03:27:02.836Z,21.55
2019-02-08T03:28:03.530Z,21.55
2019-02-08T03:29:03.096Z,21.75
2019-02-08T03:30:03.540Z,27.14
2019-02-08T03:31:03.103Z,22.53
2019-02-08T03:32:03.502Z,24.09
2019-02-08T03:33:03.389Z,22.24
2019-02-08T03:34:02.912Z,23.81
2019-02-08T03:35:02.909Z,18.91
2019-02-08T03:36:03.618Z,20.25
2019-02-08T03:37:02.897Z,23.08
2019-02-08T03:38:03.580Z,20.71
2019-02-08T03:39:03.206Z,22.19
2019-02-08T03:40:03.325Z,23.78
2019-02-08T03:41:03.543Z,23.79
2019-02-08T03:42:03.464Z,21.85
2019-02-08T03:43:03.599Z,22.17
2019-02-08T03:44:02.937Z,22.34
2019-02-08T03:45:02.953Z,24.17
2019-02-08T03:46:03.674Z,22.03
2019-02-08T03:47:03.027Z,22.32
2019-02-08T03:48:03.534Z,22.54
2019-02-08T03:49:03.089Z,23.05
2019-02-08T03:50:03.018Z,23.83
2019-02-08T03:51:03.388Z,25.67
2019-02-08T03:52:03.067Z,26.01
2019-02-08T03:53:03.647Z,23.32
2019-02-08T03:54:03.038Z,27.71
2019-02-08T03:55:03.503Z,25.49
2019-02-08T03:56:03.331Z,23.92
2019-02-08T03:57:02.874Z,28.84
2019-02-08T03:58:03.563Z,30.55
2019-02-08T03:59:03.010Z,27.08
2019-02-08T04:00:03.478Z,26.01
2019-02-08T04:01:03.138Z,26.11
2019-02-08T04:02:03.757Z,26.68
2019-02-08T04:03:03.315Z,24.8
2019-02-08T04:04:02.924Z,26.82
2019-02-08T04:05:03.535Z,23.19
2019-02-08T04:06:02.870Z,26.64
2019-02-08T04:07:03.014Z,24.37
2019-02-08T04:08:03.578Z,24.11
2019-02-08T04:09:03.128Z,26.22
2019-02-08T04:10:03.119Z,24.45
2019-02-08T04:11:03.354Z,24.45
2019-02-08T04:12:02.762Z,25.13
2019-02-08T04:13:03.409Z,24.35
2019-02-08T04:14:03.183Z,24.35
2019-02-08T04:15:03.937Z,27.95
2019-02-08T04:16:03.344Z,27.95
2019-02-08T04:17:03.134Z,23.64
2019-02-08T04:18:03.227Z,24.76
2019-02-08T04:19:03.053Z,24.99
2019-02-08T04:20:03.690Z,25.51
2019-02-08T04:21:03.232Z,26
2019-02-08T04:22:03.640Z,26.12
2019-02-08T04:23:03.655Z,25.36
2019-02-08T04:24:03.471Z,24.19
2019-02-08T04:25:03.133Z,24.18
2019-02-08T04:26:03.369Z,24.29
2019-02-08T04:27:02.950Z,25.06
2019-02-08T04:28:03.634Z,25.13
2019-02-08T04:29:03.384Z,24.75
2019-02-08T04:30:02.898Z,26.62
2019-02-08T04:31:03.196Z,25.52
2019-02-08T04:32:02.915Z,24.93
2019-02-08T04:33:03.511Z,24.45
2019-02-08T04:34:02.924Z,25.78
2019-02-08T04:35:03.442Z,26.32
2019-02-08T04:36:02.930Z,26.12
2019-02-08T04:37:03.816Z,26.86
2019-02-08T04:38:02.878Z,25.06
2019-02-08T04:39:03.414Z,27.7
2019-02-08T04:40:03.164Z,26.41
2019-02-08T04:41:03.631Z,24.85
2019-02-08T04:42:03.284Z,26.46
2019-02-08T04:43:03.683Z,25.14
2019-02-08T04:44:02.899Z,22.63
2019-02-08T04:45:02.782Z,25.72
2019-02-08T04:46:03.345Z,24.74
2019-02-08T04:47:03.031Z,23.29
2019-02-08T04:48:03.551Z,25.36
2019-02-08T04:49:02.960Z,21.92
2019-02-08T04:50:03.143Z,23.43
2019-02-08T04:51:02.738Z,24.49
2019-02-08T04:52:03.351Z,23.93
2019-02-08T04:53:02.791Z,25.69
2019-02-08T04:54:03.302Z,23.7
2019-02-08T04:55:03.332Z,25.56
2019-02-08T04:56:03.535Z,24.46
2019-02-08T04:57:02.978Z,24.12
2019-02-08T04:58:03.690Z,24
2019-02-08T04:59:03.062Z,24.99
2019-02-08T05:00:03.759Z,23.42
2019-02-08T05:01:03.156Z,23.91
2019-02-08T05:02:03.765Z,25.43
2019-02-08T05:03:03.132Z,22.08
2019-02-08T05:04:02.874Z,22.08
2019-02-08T05:05:03.489Z,22.68
2019-02-08T05:06:02.833Z,24.8
2019-02-08T05:07:02.695Z,24.8
2019-02-08T05:08:03.148Z,24.18
2019-02-08T05:09:03.420Z,25.83
2019-02-08T05:10:03.273Z,25.83
2019-02-08T05:11:03.013Z,24.53
2019-02-08T05:12:03.129Z,26.01
2019-02-08T05:13:03.059Z,26.39
2019-02-08T05:14:03.591Z,26.58
2019-02-08T05:15:03.510Z,24.73
2019-02-08T05:16:02.722Z,23.94
2019-02-08T05:17:03.486Z,24.73
2019-02-08T05:18:03.410Z,23.04
2019-02-08T05:19:02.828Z,22.89
2019-02-08T05:20:03.432Z,25.6
2019-02-08T05:21:02.956Z,24.52
2019-02-08T05:22:03.593Z,24.68
2019-02-08T05:23:03.169Z,22.51
2019-02-08T05:24:03.774Z,25.5
2019-02-08T05:25:03.377Z,22.19
2019-02-08T05:26:03.643Z,21.73
2019-02-08T05:27:02.595Z,22.8
2019-02-08T05:28:03.648Z,21.22
2019-02-08T05:29:03.073Z,22.85
2019-02-08T05:30:03.742Z,22.2
2019-02-08T05:31:02.817Z,22.19
2019-02-08T05:32:03.297Z,21.43
2019-02-08T05:33:03.027Z,20.72
2019-02-08T05:34:03.288Z,20.51
2019-02-08T05:35:02.832Z,21.23
2019-02-08T05:36:03.514Z,21.86
2019-02-08T05:37:03.067Z,22.15
2019-02-08T05:38:03.713Z,21.85
2019-02-08T05:39:02.963Z,21.81
2019-02-08T05:40:03.499Z,22.06
2019-02-08T05:41:03.179Z,23.74
2019-02-08T05:42:03.773Z,22.17
2019-02-08T05:43:03.094Z,22.05
2019-02-08T05:44:03.507Z,22.71
2019-02-08T05:45:03.095Z,21.78
2019-02-08T05:46:02.876Z,21.56
2019-02-08T05:47:03.293Z,22.62
2019-02-08T05:48:02.842Z,23
2019-02-08T05:49:02.648Z,21.22
2019-02-08T05:50:03.161Z,21.22
2019-02-08T05:51:02.874Z,21.65
2019-02-08T05:52:03.660Z,21.25
2019-02-08T05:53:02.857Z,21.25
2019-02-08T05:54:03.270Z,22.91
2019-02-08T05:55:02.986Z,22.91
2019-02-08T05:56:03.530Z,22.06
2019-02-08T05:57:03.592Z,21.8
2019-02-08T05:58:03.356Z,21.8
2019-02-08T05:59:02.902Z,21.9
2019-02-08T06:00:03.396Z,22.22
2019-02-08T06:01:02.908Z,23.62
2019-02-08T06:02:02.764Z,21.11
2019-02-08T06:03:03.554Z,23.27
2019-02-08T06:04:02.797Z,22.98
2019-02-08T06:05:03.322Z,22.09
2019-02-08T06:06:03.306Z,23.36
2019-02-08T06:07:02.960Z,22.19
2019-02-08T06:08:03.420Z,22.03
2019-02-08T06:09:02.789Z,25.19
2019-02-08T06:10:03.132Z,21.92
2019-02-08T06:11:03.679Z,23.46
2019-02-08T06:12:02.995Z,23.35
2019-02-08T06:13:03.958Z,23.03
2019-02-08T06:14:03.247Z,25.09
2019-02-08T06:15:03.758Z,24.72
2019-02-08T06:16:03.074Z,22.69
2019-02-08T06:17:02.907Z,24.33
2019-02-08T06:18:02.884Z,21.98
2019-02-08T06:19:03.393Z,22.68
2019-02-08T06:20:02.933Z,23.84
2019-02-08T06:21:03.514Z,21.05
2019-02-08T06:22:02.883Z,23.59
2019-02-08T06:23:03.160Z,23.22
2019-02-08T06:24:03.673Z,20.39
2019-02-08T06:25:04.845Z,21.88
2019-02-08T06:26:02.813Z,20.92
2019-02-08T06:27:02.935Z,19.61
2019-02-08T06:28:03.263Z,22.29
2019-02-08T06:29:02.827Z,21.52
2019-02-08T06:30:03.138Z,20.42
2019-02-08T06:31:02.529Z,21.22
2019-02-08T06:32:03.113Z,20.68
2019-02-08T06:33:03.183Z,20.12
2019-02-08T06:34:03.514Z,19.97
2019-02-08T06:35:03.105Z,21.55
2019-02-08T06:36:03.529Z,20.4
2019-02-08T06:37:03.053Z,20.66
2019-02-08T06:38:03.478Z,20.24
2019-02-08T06:39:02.961Z,20.69
2019-02-08T06:40:03.601Z,21.35
2019-02-08T06:41:03.194Z,21.35
2019-02-08T06:42:03.216Z,19.89
2019-02-08T06:43:02.801Z,21.36
2019-02-08T06:44:03.224Z,21.36
2019-02-08T06:45:02.970Z,21.72
2019-02-08T06:46:03.309Z,21.72
2019-02-08T06:47:02.842Z,20.22
2019-02-08T06:48:03.562Z,20.91
2019-02-08T06:49:03.132Z,20.47
2019-02-08T06:50:03.512Z,19.96
2019-02-08T06:51:04.279Z,20.75
2019-02-08T06:52:03.517Z,20.12
2019-02-08T06:53:03.121Z,20.58
2019-02-08T06:54:03.473Z,20.53
2019-02-08T06:55:11.199Z,21.18
2019-02-08T06:56:03.261Z,21.09
2019-02-08T06:57:02.907Z,20.05
2019-02-08T06:58:03.431Z,19.41
2019-02-08T06:59:03.779Z,20.67
2019-02-08T07:00:03.581Z,17.65
2019-02-08T07:01:02.771Z,20.06
2019-02-08T07:02:03.354Z,21.89
2019-02-08T07:03:03.729Z,20.41
2019-02-08T07:04:03.254Z,21.49
2019-02-08T07:05:03.760Z,20.26
2019-02-08T07:06:03.291Z,21.52
2019-02-08T07:07:02.815Z,18.88
2019-02-08T07:08:03.141Z,21.18
2019-02-08T07:09:03.445Z,19.95
2019-02-08T07:10:02.706Z,18.46
2019-02-08T07:11:03.328Z,18.52
2019-02-08T07:12:03.107Z,21.29
2019-02-08T07:13:03.471Z,18.02
2019-02-08T07:14:02.625Z,18.38
2019-02-08T07:15:03.315Z,20.12
2019-02-08T07:16:03.476Z,20.05
2019-02-08T07:17:03.162Z,20.78
2019-02-08T07:18:03.784Z,19.88
2019-02-08T07:19:03.252Z,20.51
2019-02-08T07:20:03.581Z,18.71
2019-02-08T07:21:03.043Z,19.3
2019-02-08T07:22:03.505Z,19.59
2019-02-08T07:23:03.198Z,18.15
2019-02-08T07:24:03.351Z,21.12
2019-02-08T07:25:02.969Z,22.1
2019-02-08T07:26:03.457Z,20.18
2019-02-08T07:27:02.941Z,18.42
2019-02-08T07:28:03.473Z,19.53
2019-02-08T07:29:03.119Z,20.63
2019-02-08T07:30:03.502Z,20.63
2019-02-08T07:31:03.118Z,18.63
2019-02-08T07:32:03.451Z,18.63
2019-02-08T07:33:02.669Z,20.98
2019-02-08T07:34:03.463Z,20.49
2019-02-08T07:35:02.891Z,20.49
2019-02-08T07:36:03.278Z,19.79
2019-02-08T07:37:03.068Z,19.79
2019-02-08T07:38:03.060Z,19.48
2019-02-08T07:39:02.820Z,20.02
2019-02-08T07:40:03.310Z,19.37
2019-02-08T07:41:03.680Z,20.52
2019-02-08T07:42:03.341Z,18.86
2019-02-08T07:43:03.646Z,18.19
2019-02-08T07:44:01.873Z,20.29
2019-02-08T07:45:03.612Z,19.3
2019-02-08T07:46:02.894Z,20.09
2019-02-08T07:47:03.433Z,19.22
2019-02-08T07:48:02.794Z,19.69
2019-02-08T07:49:03.522Z,19.66
2019-02-08T07:50:03.681Z,20.91
2019-02-08T07:51:03.194Z,22.56
2019-02-08T07:52:03.319Z,20.88
2019-02-08T07:53:03.116Z,21.12
2019-02-08T07:54:03.628Z,22.28
2019-02-08T07:55:03.014Z,20.89
2019-02-08T07:56:03.466Z,21.76
2019-02-08T07:57:02.763Z,21.63
2019-02-08T07:58:03.282Z,19.34
2019-02-08T07:59:03.575Z,19.26
2019-02-08T08:00:03.094Z,21.38
2019-02-08T08:01:02.877Z,20.68
2019-02-08T08:02:03.374Z,20.43
2019-02-08T08:03:02.807Z,19.45
2019-02-08T08:04:03.276Z,21.06
2019-02-08T08:05:03.840Z,21.14
2019-02-08T08:06:03.189Z,22.03
2019-02-08T08:07:03.494Z,23.32
2019-02-08T08:08:03.047Z,22.09
2019-02-08T08:09:02.860Z,23.94
2019-02-08T08:10:03.212Z,22.04
2019-02-08T08:11:03.767Z,22.52
2019-02-08T08:12:03.284Z,24.85
2019-02-08T08:13:03.222Z,27.65
2019-02-08T08:14:02.854Z,27.37
2019-02-08T08:15:03.347Z,22.95
2019-02-08T08:16:02.782Z,22.8
2019-02-08T08:17:03.349Z,25.26
2019-02-08T08:18:02.557Z,26.64
2019-02-08T08:19:03.333Z,25.86
2019-02-08T08:20:02.753Z,23.36
2019-02-08T08:21:03.435Z,23.36
2019-02-08T08:22:03.681Z,19.05
2019-02-08T08:23:03.201Z,19.05
2019-02-08T08:24:03.448Z,19.71
2019-02-08T08:25:03.002Z,18.73
2019-02-08T08:26:03.373Z,20.31
2019-02-08T08:27:02.799Z,20.31
2019-02-08T08:28:03.393Z,20.87
2019-02-08T08:29:02.808Z,20.63
2019-02-08T08:30:03.352Z,20.36
2019-02-08T08:31:03.422Z,19.28
2019-02-08T08:32:03.079Z,20.33
2019-02-08T08:33:03.450Z,19.28
2019-02-08T08:34:02.839Z,20.37
2019-02-08T08:35:03.138Z,21.55
2019-02-08T08:36:03.555Z,20.84
2019-02-08T08:37:02.944Z,21.19
2019-02-08T08:38:03.411Z,19.69
2019-02-08T08:39:02.909Z,19.53
2019-02-08T08:40:03.608Z,19.36
2019-02-08T08:41:02.885Z,18.21
2019-02-08T08:42:02.970Z,18.8
2019-02-08T08:43:02.812Z,18.35
2019-02-08T08:44:02.765Z,18.99
2019-02-08T08:45:03.660Z,19.41
2019-02-08T08:46:02.829Z,17.81
2019-02-08T08:47:03.636Z,17.98
2019-02-08T08:48:02.765Z,17.71
2019-02-08T08:49:03.244Z,17.55
2019-02-08T08:50:02.689Z,16.58
2019-02-08T08:51:03.585Z,16.48
2019-02-08T08:52:03.122Z,16.8
2019-02-08T08:53:03.372Z,14.83
2019-02-08T08:54:02.739Z,14.84
2019-02-08T08:55:03.231Z,15.03
2019-02-08T08:56:03.815Z,14.34
2019-02-08T08:57:02.907Z,14.46
2019-02-08T08:58:02.604Z,14.69
2019-02-08T08:59:03.331Z,14.06
2019-02-08T09:00:02.787Z,14.39
2019-02-08T09:01:03.177Z,15.22
2019-02-08T09:02:03.557Z,14.94
2019-02-08T09:03:03.673Z,14.28
2019-02-08T09:04:02.886Z,14.03
2019-02-08T09:05:03.442Z,13.05
2019-02-08T09:06:09.044Z,13.51
2019-02-08T09:07:03.774Z,12.99
2019-02-08T09:08:02.960Z,12.99
2019-02-08T09:09:03.232Z,11.53
2019-02-08T09:10:03.229Z,11.59
2019-02-08T09:11:03.459Z,13.94
2019-02-08T09:12:02.938Z,13.94
2019-02-08T09:13:03.326Z,12.34
2019-02-08T09:14:02.796Z,12.64
2019-02-08T09:15:03.216Z,12.64
2019-02-08T09:16:03.045Z,13.44
2019-02-08T09:17:03.310Z,12.75
2019-02-08T09:18:02.807Z,12.55
2019-02-08T09:19:03.407Z,12.55
2019-02-08T09:20:03.001Z,11.65
2019-02-08T09:21:03.391Z,13.24
2019-02-08T09:22:02.928Z,13.24
2019-02-08T09:23:03.225Z,11.74
2019-02-08T09:24:02.852Z,11.61
2019-02-08T09:25:03.211Z,11.49
2019-02-08T09:26:02.551Z,11.35
2019-02-08T09:27:03.133Z,11.47
2019-02-08T09:28:03.065Z,11.49
2019-02-08T09:29:03.089Z,12.31
2019-02-08T09:30:03.102Z,11.58
2019-02-08T09:31:03.232Z,12.25
2019-02-08T09:32:03.307Z,11.75
2019-02-08T09:33:03.281Z,12.12
2019-02-08T09:34:03.101Z,12.36
2019-02-08T09:35:02.954Z,12.19
2019-02-08T09:36:02.897Z,11.58
2019-02-08T09:37:03.378Z,10.73
2019-02-08T09:38:03.464Z,11.69
2019-02-08T09:39:02.587Z,10.48
2019-02-08T09:40:03.509Z,10.25
2019-02-08T09:41:03.057Z,9.99
2019-02-08T09:42:03.400Z,10.26
2019-02-08T09:43:02.913Z,9.11
2019-02-08T09:44:03.403Z,9.54
2019-02-08T09:45:03.354Z,9.61
2019-02-08T09:46:03.124Z,10.34
2019-02-08T09:47:03.519Z,11.15
2019-02-08T09:48:02.937Z,9.92
2019-02-08T09:49:03.704Z,9.49
2019-02-08T09:50:03.032Z,10.84
2019-02-08T09:51:02.630Z,9.02
2019-02-08T09:52:03.546Z,9.65
2019-02-08T09:53:03.452Z,8.95
2019-02-08T09:54:03.442Z,8.46
2019-02-08T09:55:03.400Z,8.8
2019-02-08T09:56:02.923Z,7.69
2019-02-08T09:57:03.558Z,7.79
2019-02-08T09:58:02.855Z,7.85
2019-02-08T09:59:03.312Z,7.1
2019-02-08T10:00:03.656Z,7.1
2019-02-08T10:01:03.349Z,7.56
2019-02-08T10:02:02.553Z,7.09
2019-02-08T10:03:03.250Z,7.09
2019-02-08T10:04:02.762Z,7.45
2019-02-08T10:05:03.797Z,7.45
2019-02-08T10:06:02.796Z,7.58
2019-02-08T10:07:02.609Z,7.68
2019-02-08T10:08:02.992Z,7.68
2019-02-08T10:09:03.617Z,6.41
2019-02-08T10:10:03.219Z,7.69
2019-02-08T10:11:03.418Z,7.24
2019-02-08T10:12:02.849Z,7.37
2019-02-08T10:13:03.275Z,6.74
2019-02-08T10:14:03.064Z,6.59
2019-02-08T10:15:04.152Z,10.11
2019-02-08T10:16:03.050Z,10.11
2019-02-08T10:17:03.635Z,12.06
2019-02-08T10:18:03.258Z,11.78
2019-02-08T10:19:03.695Z,12.97
2019-02-08T10:20:03.142Z,13.61
2019-02-08T10:21:02.848Z,12.15
2019-02-08T10:22:02.992Z,13.04
2019-02-08T10:23:03.467Z,12.21
2019-02-08T10:24:02.646Z,12.15
2019-02-08T10:25:03.584Z,11.79
2019-02-08T10:26:05.725Z,11.99
2019-02-08T10:27:02.709Z,10.85
2019-02-08T10:28:02.918Z,11.62
2019-02-08T10:29:03.228Z,12.24
2019-02-08T10:30:01.914Z,11.73
2019-02-08T10:31:03.633Z,12.31
2019-02-08T10:32:03.394Z,11.96
2019-02-08T10:33:02.901Z,11.76
2019-02-08T10:34:03.375Z,10.65
2019-02-08T10:35:03.067Z,10.99
2019-02-08T10:36:03.718Z,10.14
2019-02-08T10:37:03.005Z,10.39
2019-02-08T10:38:02.895Z,8.49
2019-02-08T10:39:03.593Z,6.92
2019-02-08T10:40:03.004Z,7.67
2019-02-08T10:41:03.397Z,7.32
2019-02-08T10:42:02.952Z,7.94
2019-02-08T10:43:03.711Z,7.66
2019-02-08T10:44:03.845Z,7.6
2019-02-08T10:45:03.409Z,7.32
2019-02-08T10:46:02.771Z,7.78
2019-02-08T10:47:03.352Z,9.65
2019-02-08T10:48:02.555Z,9.35
2019-02-08T10:49:03.031Z,9.05
2019-02-08T10:50:03.636Z,10.33
2019-02-08T10:51:03.496Z,9.52
2019-02-08T10:52:02.903Z,9.38
2019-02-08T10:53:03.522Z,10.24
2019-02-08T10:54:02.981Z,12.24
2019-02-08T10:55:03.496Z,12.11
2019-02-08T10:56:03.005Z,12.11
2019-02-08T10:57:02.977Z,11.8
2019-02-08T10:58:02.687Z,12.98
2019-02-08T10:59:03.451Z,12.98
2019-02-08T11:00:03.121Z,13.05
2019-02-08T11:01:03.460Z,13.66
2019-02-08T11:02:02.767Z,13.01
2019-02-08T11:03:03.188Z,11.6
2019-02-08T11:04:02.969Z,11.62
2019-02-08T11:05:03.566Z,11.16
2019-02-08T11:06:03.124Z,11.22
2019-02-08T11:07:03.459Z,10
2019-02-08T11:08:03.104Z,12.26
2019-02-08T11:09:03.504Z,13.66
2019-02-08T11:10:03.008Z,13.63
2019-02-08T11:11:03.375Z,16.94
2019-02-08T11:12:03.051Z,17.91
2019-02-08T11:13:03.405Z,19.42
2019-02-08T11:14:02.646Z,20.53
2019-02-08T11:15:03.117Z,21.79
2019-02-08T11:16:03.136Z,23.24
2019-02-08T11:17:03.330Z,22.24
2019-02-08T11:18:03.050Z,21.06
2019-02-08T11:19:03.528Z,19.34
2019-02-08T11:20:03.296Z,17.11
2019-02-08T11:21:02.753Z,19.27
2019-02-08T11:22:03.238Z,18.01
2019-02-08T11:23:03.635Z,17.57
2019-02-08T11:24:03.284Z,18.01
2019-02-08T11:25:02.887Z,18.27
2019-02-08T11:26:03.371Z,18.01
2019-02-08T11:27:02.778Z,16.67
2019-02-08T11:28:03.233Z,16.42
2019-02-08T11:29:03.638Z,17.59
2019-02-08T11:30:03.387Z,19.14
2019-02-08T11:31:03.199Z,16.52
2019-02-08T11:32:03.234Z,17.46
2019-02-08T11:33:03.061Z,16.22
2019-02-08T11:34:03.791Z,16.99
2019-02-08T11:35:02.970Z,15.67
2019-02-08T11:36:02.942Z,16.96
2019-02-08T11:37:03.308Z,16.99
2019-02-08T11:38:02.896Z,15.18
2019-02-08T11:39:03.054Z,16.33
2019-02-08T11:40:03.770Z,16.33
2019-02-08T11:41:03.108Z,16.68
2019-02-08T11:42:02.851Z,16.68
2019-02-08T11:43:03.301Z,27.45
2019-02-08T11:44:03.631Z,20.51
2019-02-08T11:45:03.347Z,20.51
2019-02-08T11:46:02.736Z,16.97
2019-02-08T11:47:03.290Z,16.42
2019-02-08T11:48:03.581Z,20.84
2019-02-08T11:49:03.145Z,18.91
2019-02-08T11:50:03.603Z,16.13
2019-02-08T11:51:03.419Z,16.21
2019-02-08T11:52:02.972Z,14.65
2019-02-08T11:53:03.422Z,13.87
2019-02-08T11:54:02.905Z,14.95
2019-02-08T11:55:03.682Z,13.08
2019-02-08T11:56:02.865Z,15.61
2019-02-08T11:57:03.604Z,13.15
2019-02-08T11:58:03.191Z,14.23
2019-02-08T11:59:03.665Z,14.26
2019-02-08T12:00:03.233Z,14.6
2019-02-08T12:01:02.830Z,13.57
2019-02-08T12:02:03.189Z,12.21
2019-02-08T12:03:02.704Z,13.69
2019-02-08T12:04:03.649Z,13.22
2019-02-08T12:05:03.585Z,15.02
2019-02-08T12:06:02.796Z,13.22
2019-02-08T12:07:03.558Z,13.22
2019-02-08T12:08:02.775Z,10.62
2019-02-08T12:09:03.507Z,9.44
2019-02-08T12:10:03.064Z,6.85
2019-02-08T12:11:03.254Z,5.02
2019-02-08T12:12:02.760Z,4
2019-02-08T12:13:03.225Z,6.64
2019-02-08T12:14:03.552Z,10.92
2019-02-08T12:15:03.328Z,10.89
2019-02-08T12:16:03.729Z,11.66
2019-02-08T12:17:03.164Z,13.14
2019-02-08T12:18:03.283Z,13.35
2019-02-08T12:19:02.849Z,12.99
2019-02-08T12:20:03.492Z,14.71
2019-02-08T12:21:03.029Z,13.55
2019-02-08T12:22:03.387Z,14.56
2019-02-08T12:23:03.581Z,13.22
2019-02-08T12:24:03.221Z,13.1
2019-02-08T12:25:03.611Z,14.12
2019-02-08T12:26:02.940Z,13.06
2019-02-08T12:27:03.639Z,13.94
2019-02-08T12:28:02.959Z,13.08
2019-02-08T12:29:03.282Z,11.42
2019-02-08T12:30:03.685Z,13.49
2019-02-08T12:31:03.097Z,12.95
2019-02-08T12:32:02.711Z,12.1
2019-02-08T12:33:03.268Z,12.1
2019-02-08T12:34:03.641Z,13.17
2019-02-08T12:35:02.892Z,13.8
2019-02-08T12:36:03.255Z,13.8
2019-02-08T12:37:03.564Z,14.5
2019-02-08T12:38:03.272Z,14.39
2019-02-08T12:39:05.133Z,14.26
2019-02-08T12:40:03.416Z,13.66
2019-02-08T12:41:10.118Z,14.48
2019-02-08T12:42:03.060Z,14.56
2019-02-08T12:43:03.606Z,15.08
2019-02-08T12:44:03.145Z,14.75
2019-02-08T12:45:03.296Z,14.85
2019-02-08T12:46:03.190Z,14.85
2019-02-08T12:47:03.028Z,16.27
2019-02-08T12:48:02.812Z,15.1
2019-02-08T12:49:03.168Z,15.09
2019-02-08T12:50:02.843Z,15.44
2019-02-08T12:51:03.706Z,15.81
2019-02-08T12:52:02.886Z,15.24
2019-02-08T12:53:03.471Z,14.91
2019-02-08T12:54:02.852Z,14.92
2019-02-08T12:55:03.150Z,13.75
2019-02-08T12:56:03.499Z,14.64